• Join FlightAware (Why Join?)
  • Login
  • US Flag 
02:45PM EDT


 

Airport Tracker/Info


-or-


 

Live Flight TrackerFlight Track Log ✈ N7192Y ✈ 13-May-2013 ✈ KPIE - KDAY

Flight Track Log - Related Links

Times and Time Zones

All times are in EDT time to prevent confusion due to time zone crossing. See the N7192Y flight status page for this flight to view local times or setup timezone preferences in your user account.

Time Position Orientation Groundspeed Altitude Reporting Facility
EDT Latitude Longitude Course Direction KTS MPH feet Rate Location/Type
07:45AM 27.9167 -82.6833 336° Northwest 99 114 500  Level Tampa TRACON
07:46AM 27.9500 -82.7000 336° Northwest 118 136 1,300 660 Climbing Tampa TRACON
07:47AM 27.9667 -82.7167 319° Northwest 110 127 1,900 660 Climbing Tampa TRACON
07:48AM 27.9833 -82.7500 300° West 111 128 2,500 600 Climbing Tampa TRACON
07:49AM 27.9667 -82.7833 240° Southwest 117 135 3,200 600 Climbing Tampa TRACON
07:50AM 27.9667 -82.8167 270° West 119 137 3,800 420 Climbing Tampa TRACON
07:51AM 27.9833 -82.8500 300° West 129 148 4,100 120 Climbing Tampa TRACON
07:52AM 28.0000 -82.8833 300° West 140 161 4,100  Level Tampa TRACON
07:53AM 28.0500 -82.8833 360° North 145 167 4,100  Level Tampa TRACON
07:54AM 28.0833 -82.8833 360° North 142 163 4,100  Level Tampa TRACON
07:55AM 28.1167 -82.8667 24° Northeast 138 159 4,100 -60 Level Tampa TRACON
07:56AM 28.1500 -82.8500 24° Northeast 144 166 4,000  Descending Tampa TRACON
07:57AM 28.2000 -82.8333 16° North 147 169 4,100 300 Climbing Tampa TRACON
07:58AM 28.2333 -82.8333 360° North 132 152 4,700 540 Climbing Tampa TRACON
07:59AM 28.2667 -82.8167 24° Northeast 123 142 5,300 600 Climbing Tampa TRACON
08:00AM 28.3000 -82.8167 360° North 114 131 5,900 600 Climbing Tampa TRACON
08:01AM 28.3167 -82.8167 360° North 108 124 6,500 480 Climbing Tampa TRACON
08:02AM 28.3500 -82.8333 336° Northwest 108 124 6,900 360 Climbing Tampa TRACON
08:03AM 28.3833 -82.8333 360° North 112 129 7,300 360 Climbing Tampa TRACON
08:04AM 28.4167 -82.8333 360° North 115 132 7,700 360 Climbing Tampa TRACON
08:05AM 28.4500 -82.8500 336° Northwest 114 131 8,100 300 Climbing Tampa TRACON
08:06AM 28.4672 -82.8478 North 152 175 8,200 60 Climbing Jacksonville Center
08:07AM 28.5047 -82.8525 354° North 136 157 8,200  Level Jacksonville Center
08:08AM 28.5381 -82.8594 350° North 129 148 8,200  Level Jacksonville Center
08:09AM 28.5736 -82.8689 347° North 124 143 8,200  Level Jacksonville Center
08:10AM 28.6133 -82.8761 351° North 124 143 8,200  Level Jacksonville Center
08:12AM 28.7000 -82.8833 356° North 135 155 8,200  Level Tampa TRACON
08:13AM 28.7500 -82.9000 344° North 136 157 8,200  Level Tampa TRACON
08:14AM 28.7833 -82.9000 360° North 134 154 8,200  Level Tampa TRACON
08:15AM 28.8219 -82.9092 348° North 161 185 8,200  Level Jacksonville Center
08:16AM 28.8575 -82.9164 350° North 136 157 8,200  Level Jacksonville Center
08:17AM 28.8928 -82.9233 350° North 125 144 8,200  Level Jacksonville Center
08:18AM 28.9306 -82.9306 351° North 125 144 8,200  Level Jacksonville Center
08:19AM 28.9681 -82.9378 350° North 125 144 8,200  Level Jacksonville Center
08:20AM 29.0036 -82.9447 350° North 125 144 8,200 -60 Level Jacksonville Center
08:21AM 29.0411 -82.9519 350° North 125 144 8,100 -60 Descending Jacksonville Center
08:22AM 29.0808 -82.9567 354° North 125 144 8,100  Level Jacksonville Center
08:23AM 29.1203 -82.9639 351° North 130 150 8,100  Level Jacksonville Center
08:24AM 29.1581 -82.9711 351° North 137 158 8,100  Level Jacksonville Center
08:25AM 29.1933 -82.9783 350° North 137 158 8,100  Level Jacksonville Center
08:26AM 29.2353 -82.9853 352° North 142 163 8,100  Level Jacksonville Center
08:27AM 29.2706 -82.9903 353° North 142 163 8,100  Level Jacksonville Center
08:28AM 29.3103 -82.9997 348° North 142 163 8,100  Level Jacksonville Center
08:29AM 29.3478 -83.0069 350° North 142 163 8,100  Level Jacksonville Center
08:30AM 29.3875 -83.0142 351° North 142 163 8,100  Level Jacksonville Center
08:31AM 29.4250 -83.0214 350° North 142 163 8,100  Level Jacksonville Center
08:32AM 29.4628 -83.0261 354° North 142 163 8,100  Level Jacksonville Center
08:33AM 29.5003 -83.0358 347° North 142 163 8,100  Level Jacksonville Center
08:34AM 29.5400 -83.0406 354° North 142 163 8,100  Level Jacksonville Center
08:35AM 29.5794 -83.0503 348° North 142 163 8,100  Level Jacksonville Center
08:36AM 29.6172 -83.0575 351° North 142 163 8,100  Level Jacksonville Center
08:37AM 29.6547 -83.0647 350° North 142 163 8,100  Level Jacksonville Center
08:38AM 29.6944 -83.0719 351° North 142 163 8,100  Level Jacksonville Center
08:39AM 29.7339 -83.0792 351° North 142 163 8,100  Level Jacksonville Center
08:40AM 29.7717 -83.0864 351° North 142 163 8,100  Level Jacksonville Center
08:41AM 29.8111 -83.0936 351° North 142 163 8,100  Level Jacksonville Center
08:42AM 29.8489 -83.1008 351° North 142 163 8,100  Level Jacksonville Center
08:43AM 29.8883 -83.1081 351° North 142 163 8,100  Level Jacksonville Center
08:44AM 29.9281 -83.1156 351° North 142 163 8,100  Level Jacksonville Center
08:45AM 29.9678 -83.1228 351° North 142 163 8,100  Level Jacksonville Center
08:46AM 30.0053 -83.1325 347° North 142 163 8,100  Level Jacksonville Center
08:47AM 30.0428 -83.1372 354° North 142 163 8,100  Level Jacksonville Center
08:48AM 30.0806 -83.1447 350° North 142 163 8,100  Level Jacksonville Center
08:49AM 30.1200 -83.1519 351° North 142 163 8,100  Level Jacksonville Center
08:50AM 30.1597 -83.1617 348° North 142 163 8,100  Level Jacksonville Center
08:51AM 30.1994 -83.1689 351° North 142 163 8,100  Level Jacksonville Center
08:52AM 30.2369 -83.1764 350° North 142 163 8,100  Level Jacksonville Center
08:53AM 30.2767 -83.1836 351° North 142 163 8,100  Level Jacksonville Center
08:54AM 30.3164 -83.1908 351° North 142 163 8,100  Level Jacksonville Center
08:55AM 30.3456 -83.1983 347° North 143 165 8,100  Level Jacksonville Center
08:55AM 30.3558 -83.1983 360° North 142 163 8,100  Level Jacksonville Center
08:56AM 30.3831 -83.2056 347° North 142 163 8,100  Level Jacksonville Center
08:56AM 30.3956 -83.2056 360° North 142 163 8,100  Level Jacksonville Center
08:57AM 30.4247 -83.2131 347° North 143 165 8,100  Level Jacksonville Center
08:57AM 30.4353 -83.2131 360° North 142 163 8,100  Level Jacksonville Center
08:58AM 30.4622 -83.2228 343° North 143 165 8,100  Level Jacksonville Center
08:58AM 30.4728 -83.2228 360° North 142 163 8,100  Level Jacksonville Center
08:59AM 30.5042 -83.2300 349° North 143 165 8,100 -120 Level Jacksonville Center
08:59AM 30.5103 -83.2278 17° North 142 163 8,000  Descending Jacksonville Center
09:00AM 30.5436 -83.2375 346° North 141 162 8,100  Climbing Jacksonville Center
09:01AM 30.5814 -83.2472 348° North 140 161 8,100  Level Jacksonville Center
09:02AM 30.6231 -83.2547 351° North 141 162 8,100  Level Jacksonville Center
09:03AM 30.6586 -83.2622 350° North 141 162 8,100  Level Jacksonville Center
09:04AM 30.7044 -83.2647 357° North 142 163 8,100  Level Jacksonville Center
09:05AM 30.7419 -83.2769 344° North 140 161 8,100  Level Jacksonville Center
09:06AM 30.7794 -83.2842 351° North 139 160 8,100  Level Jacksonville Center
09:07AM 30.8214 -83.2869 357° North 142 163 8,100  Level Jacksonville Center
09:08AM 30.8589 -83.2869 360° North 142 163 8,100 -120 Level Jacksonville Center
09:09AM 30.9006 -83.2872 360° North 144 166 7,900 -300 Descending Jacksonville Center
09:10AM 30.9444 -83.2897 357° North 157 181 7,500 -420 Descending Jacksonville Center
09:11AM 30.9906 -83.2875 North 160 184 7,100 -240 Descending Jacksonville Center
09:12AM 31.0322 -83.2878 360° North 152 175 7,100  Level Jacksonville Center
09:13AM 31.0739 -83.2881 360° North 144 166 7,100 -60 Level Jacksonville Center
09:14AM 31.1117 -83.2881 360° North 144 166 7,000 -60 Descending Jacksonville Center
09:15AM 31.1511 -83.2858 North 144 166 7,000  Level Jacksonville Center
09:16AM 31.1889 -83.2861 360° North 144 166 7,000  Level Jacksonville Center
09:17AM 31.2306 -83.2861 360° North 144 166 7,000  Level Jacksonville Center
09:18AM 31.2681 -83.2886 357° North 139 160 7,000  Level Jacksonville Center
09:19AM 31.3058 -83.2864 North 139 160 7,000  Level Jacksonville Center
09:20AM 31.3433 -83.2892 356° North 134 154 7,000  Level Jacksonville Center
09:21AM 31.3850 -83.2942 354° North 135 155 7,000  Level Jacksonville Center
09:23AM 31.4247 -83.2942 360° North 141 162 7,000  Level Jacksonville Center
09:24AM 31.4644 -83.2944 360° North 141 162 7,000  Level Jacksonville Center
09:25AM 31.4997 -83.2947 360° North 141 162 7,000 60 Level Jacksonville Center
09:26AM 31.5353 -83.2972 357° North 141 162 7,200 360 Climbing Jacksonville Center
09:27AM 31.5689 -83.2950 North 130 150 7,800 540 Climbing Jacksonville Center
09:28AM 31.6000 -83.2925 North 114 131 8,300 420 Climbing Jacksonville Center
09:29AM 31.6294 -83.2953 355° North 109 125 8,700 360 Climbing Jacksonville Center
09:30AM 31.6628 -83.2978 356° North 104 120 9,100 180 Climbing Jacksonville Center
09:31AM 31.6961 -83.2981 360° North 109 125 9,100  Level Jacksonville Center
09:32AM 31.7358 -83.2981 360° North 121 139 9,100  Level Jacksonville Center
09:33AM 31.7756 -83.2983 360° North 127 146 9,100  Level Jacksonville Center
09:34AM 31.8131 -83.2983 360° North 133 153 9,100  Level Jacksonville Center
09:35AM 31.8486 -83.3011 356° North 133 153 9,100  Level Jacksonville Center
09:36AM 31.8883 -83.2986 North 139 160 9,100  Level Jacksonville Center
09:37AM 31.9300 -83.3014 357° North 139 160 9,100  Level Jacksonville Center
09:38AM 31.9656 -83.2967 North 139 160 9,100  Level Jacksonville Center
09:39AM 32.0050 -83.2992 357° North 139 160 9,100  Level Jacksonville Center
09:40AM 32.0667 -83.3000 359° North 136 157 9,200  Climbing Atlanta TRACON
09:41AM 32.1000 -83.3000 360° North 136 157 9,200  Level Atlanta TRACON
09:42AM 32.1500 -83.3000 360° North 137 158 9,200  Level Atlanta TRACON
09:43AM 32.1833 -83.3000 360° North 133 153 9,200  Level Atlanta TRACON
09:44AM 32.2167 -83.3000 360° North 136 157 9,200  Level Atlanta TRACON
09:45AM 32.2500 -83.3000 360° North 131 151 9,200  Level Atlanta TRACON
09:46AM 32.2833 -83.3000 360° North 133 153 9,200 -60 Level Atlanta TRACON
09:47AM 32.3167 -83.3000 360° North 132 152 9,100 -60 Descending Atlanta TRACON
09:48AM 32.3667 -83.3000 360° North 131 151 9,100  Level Atlanta TRACON
09:49AM 32.4000 -83.3000 360° North 128 147 9,100  Level Atlanta TRACON
09:50AM 32.4333 -83.3000 360° North 128 147 9,100  Level Atlanta TRACON
09:51AM 32.4667 -83.3000 360° North 127 146 9,100  Level Atlanta TRACON
09:52AM 32.5000 -83.3000 360° North 127 146 9,100  Level Atlanta TRACON
09:53AM 32.5333 -83.3000 360° North 126 145 9,100  Level Atlanta TRACON
09:54AM 32.5667 -83.3167 337° Northwest 127 146 9,100  Level Atlanta TRACON
09:55AM 32.6000 -83.3167 360° North 125 144 9,100  Level Atlanta TRACON
09:56AM 32.6500 -83.3167 360° North 125 144 9,100  Level Atlanta TRACON
09:57AM 32.6833 -83.3167 360° North 125 144 9,100  Level Atlanta TRACON
09:58AM 32.7167 -83.3167 360° North 126 145 9,100  Level Atlanta TRACON
09:59AM 32.7500 -83.3167 360° North 123 142 9,100  Level Atlanta TRACON
10:00AM 32.7833 -83.3167 360° North 126 145 9,100  Level Atlanta TRACON
10:01AM 32.8167 -83.3167 360° North 125 144 9,100  Level Atlanta TRACON
10:02AM 32.8500 -83.3167 360° North 125 144 9,100  Level Atlanta TRACON
10:03AM 32.8833 -83.3167 360° North 127 146 9,100  Level Atlanta TRACON
10:04AM 32.9167 -83.3167 360° North 128 147 9,100  Level Atlanta TRACON
10:05AM 32.9667 -83.3167 360° North 127 146 9,100  Level Atlanta TRACON
10:06AM 33.0000 -83.3167 360° North 126 145 9,100  Level Atlanta TRACON
10:07AM 33.0167 -83.3167 360° North 127 146 9,100  Level Atlanta TRACON
10:08AM 33.0667 -83.3167 360° North 128 147 9,100  Level Atlanta TRACON
10:09AM 33.1000 -83.3167 360° North 128 147 9,100  Level Atlanta TRACON
10:10AM 33.1333 -83.3167 360° North 127 146 9,100  Level Atlanta TRACON
10:11AM 33.1667 -83.3167 360° North 126 145 9,100  Level Atlanta TRACON
10:12AM 33.2000 -83.3167 360° North 128 147 9,100  Level Atlanta TRACON
10:13AM 33.2333 -83.3167 360° North 130 150 9,100  Level Atlanta TRACON
10:14AM 33.2667 -83.3167 360° North 128 147 9,100  Level Atlanta TRACON
10:15AM 33.3167 -83.3167 360° North 128 147 9,100  Level Atlanta TRACON
10:16AM 33.3500 -83.3167 360° North 128 147 9,100  Level Atlanta TRACON
10:17AM 33.3833 -83.3167 360° North 128 147 9,100  Level Atlanta TRACON
10:18AM 33.4167 -83.3167 360° North 130 150 9,100  Level Atlanta TRACON
10:19AM 33.4500 -83.3167 360° North 127 146 9,100  Level Atlanta TRACON
10:20AM 33.4833 -83.3167 360° North 130 150 9,100  Level Atlanta TRACON
10:21AM 33.5333 -83.3167 360° North 132 152 9,100  Level Atlanta TRACON
10:22AM 33.5667 -83.3167 360° North 130 150 9,100  Level Atlanta TRACON
10:23AM 33.6000 -83.3167 360° North 129 148 9,100  Level Atlanta TRACON
10:24AM 33.6333 -83.3333 337° Northwest 124 143 9,100  Level Atlanta TRACON
10:25AM 33.6667 -83.3500 337° Northwest 128 147 9,100  Level Atlanta TRACON
10:26AM 33.7000 -83.3500 360° North 125 144 9,100  Level Atlanta TRACON
10:27AM 33.7333 -83.3500 360° North 125 144 9,100  Level Atlanta TRACON
10:28AM 33.7672 -83.3642 341° North 127 146 9,100  Level Atlanta Center
10:29AM 33.8008 -83.3714 350° North 127 146 9,100  Level Atlanta Center
10:30AM 33.8342 -83.3811 346° North 127 146 9,100  Level Atlanta Center
10:31AM 33.8678 -83.3858 353° North 127 146 9,100  Level Atlanta Center
10:32AM 33.9011 -83.3956 346° North 127 146 9,100  Level Atlanta Center
10:33AM 33.9367 -83.4028 350° North 127 146 9,100  Level Atlanta Center
10:34AM 33.9700 -83.4100 350° North 127 146 9,100  Level Atlanta Center
10:35AM 34.0056 -83.4147 354° North 122 140 9,100  Level Atlanta Center
10:36AM 34.0431 -83.4247 348° North 129 148 9,100  Level Atlanta Center
10:37AM 34.0744 -83.4344 346° North 121 139 9,100  Level Atlanta Center
10:38AM 34.1100 -83.4392 354° North 121 139 9,100  Level Atlanta Center
10:39AM 34.1475 -83.4489 348° North 127 146 9,100  Level Atlanta Center
10:40AM 34.1769 -83.4539 352° North 127 146 9,100  Level Atlanta Center
10:41AM 34.2125 -83.4636 347° North 126 145 9,100  Level Atlanta Center
10:42AM 34.2481 -83.4733 347° North 121 139 9,100  Level Atlanta Center
10:43AM 34.2833 -83.4806 350° North 126 145 9,100  Level Atlanta Center
10:44AM 34.3189 -83.4856 353° North 126 145 9,100  Level Atlanta Center
10:45AM 34.3544 -83.4928 350° North 126 145 9,100  Level Atlanta Center
10:46AM 34.3878 -83.5025 346° North 126 145 9,100  Level Atlanta Center
10:47AM 34.4192 -83.5100 349° North 120 138 9,100  Level Atlanta Center
10:48AM 34.4547 -83.5172 350° North 120 138 9,100  Level Atlanta Center
10:49AM 34.4903 -83.5247 350° North 125 144 9,100  Level Atlanta Center
10:50AM 34.5258 -83.5344 347° North 125 144 9,100  Level Atlanta Center
10:51AM 34.5592 -83.5419 350° North 125 144 9,100  Level Atlanta Center
10:52AM 34.5947 -83.5492 351° North 125 144 9,100  Level Atlanta Center
10:53AM 34.6344 -83.5592 348° North 120 138 9,100  Level Atlanta Center
10:54AM 34.6700 -83.5664 351° North 130 150 9,100  Level Atlanta Center
10:55AM 34.7033 -83.5739 350° North 123 142 9,100  Level Atlanta Center
10:56AM 34.7347 -83.5814 349° North 123 142 9,100  Level Atlanta Center
10:57AM 34.7681 -83.5886 350° North 123 142 9,100  Level Atlanta Center
10:58AM 34.7994 -83.5961 349° North 123 142 9,100  Level Atlanta Center
10:59AM 34.8328 -83.6036 350° North 123 142 9,100  Level Atlanta Center
11:00AM 34.8661 -83.6136 346° North 123 142 9,100  Level Atlanta Center
11:01AM 34.9017 -83.6183 354° North 123 142 9,100  Level Atlanta Center
11:02AM 34.9331 -83.6283 345° North 118 136 9,100  Level Atlanta Center
11:03AM 34.9664 -83.6333 353° North 118 136 9,100  Level Atlanta Center
11:04AM 34.9978 -83.6408 349° North 118 136 9,100  Level Atlanta Center
11:05AM 35.0292 -83.6508 345° North 118 136 9,100  Level Atlanta Center
11:06AM 35.0625 -83.6581 350° North 118 136 9,100  Level Atlanta Center
11:07AM 35.0939 -83.6631 353° North 118 136 9,100  Level Atlanta Center
11:08AM 35.1253 -83.6706 349° North 112 129 9,100  Level Atlanta Center
11:09AM 35.1586 -83.6781 350° North 112 129 9,100  Level Atlanta Center
11:10AM 35.1900 -83.6881 345° North 112 129 9,100  Level Atlanta Center
11:11AM 35.2233 -83.6931 353° North 112 129 9,100  Level Atlanta Center
11:12AM 35.2567 -83.7006 350° North 112 129 9,100  Level Atlanta Center
11:13AM 35.2900 -83.7081 350° North 112 129 9,100  Level Atlanta Center
11:14AM 35.3236 -83.7181 346° North 112 129 9,100  Level Atlanta Center
11:15AM 35.3547 -83.7231 353° North 112 129 9,100  Level Atlanta Center
11:16AM 35.3861 -83.7331 345° North 112 129 9,100  Level Atlanta Center
11:17AM 35.4175 -83.7381 353° North 112 129 9,100  Level Atlanta Center
11:18AM 35.4508 -83.7456 350° North 112 129 9,100  Level Atlanta Center
11:19AM 35.4842 -83.7531 350° North 112 129 9,100  Level Atlanta Center
11:20AM 35.5178 -83.7503 North 112 129 9,100 -120 Level Atlanta Center
11:21AM 35.5511 -83.7428 10° North 117 135 8,900 -420 Descending Atlanta Center
11:22AM 35.5886 -83.7425 360° North 127 146 8,300 -660 Descending Atlanta Center
11:24AM 35.6683 -83.7481 357° North 145 167 7,100 -600 Descending Indianapolis Center
11:25AM 35.7094 -83.7528 355° North 146 168 6,600 -480 Descending Indianapolis Center
11:26AM 35.7528 -83.7569 356° North 152 175 6,200 -300 Descending Indianapolis Center
11:27AM 35.7964 -83.7628 354° North 157 181 6,100 -120 Descending Indianapolis Center
11:28AM 35.8442 -83.7669 356° North 149 171 6,000 -60 Descending Indianapolis Center
11:29AM 35.8839 -83.7708 355° North 145 167 6,000  Level Indianapolis Center
11:30AM 35.9247 -83.7758 354° North 145 167 6,000  Level Indianapolis Center
11:31AM 35.9661 -83.7789 357° North 147 169 6,000  Level Indianapolis Center
11:32AM 36.0072 -83.7833 355° North 146 168 6,000  Level Indianapolis Center
11:33AM 36.0308 -83.7897 348° North 148 170 6,000  Level Atlanta Center
11:34AM 36.0706 -83.7947 354° North 143 165 6,000  Level Atlanta Center
11:35AM 36.1103 -83.7972 357° North 143 165 6,000  Level Atlanta Center
11:36AM 36.1519 -83.8022 354° North 143 165 6,000  Level Atlanta Center
11:37AM 36.1958 -83.8072 355° North 143 165 6,000  Level Atlanta Center
11:38AM 36.2353 -83.8097 357° North 143 165 6,000  Level Atlanta Center
11:39AM 36.2811 -83.8147 355° North 148 170 6,100  Climbing Atlanta Center
11:40AM 36.3231 -83.8172 357° North 148 170 6,000  Descending Atlanta Center
11:41AM 36.3858 -83.8219 357° North 152 175 6,100  Climbing Indianapolis Center
11:42AM 36.4350 -83.8267 356° North 149 171 6,100  Level Indianapolis Center
11:44AM 36.4744 -83.8319 354° North 144 166 6,100 -60 Level Indianapolis Center
11:45AM 36.5122 -83.8353 356° North 143 165 6,000  Descending Indianapolis Center
11:46AM 36.5536 -83.8386 356° North 146 168 6,100  Climbing Indianapolis Center
11:47AM 36.5944 -83.8444 353° North 147 169 6,000 -60 Descending Indianapolis Center
11:48AM 36.6425 -83.8492 355° North 148 170 6,000  Level Indianapolis Center
11:49AM 36.6847 -83.8525 356° North 150 173 6,000  Level Indianapolis Center
11:50AM 36.7278 -83.8581 354° North 153 176 6,000  Level Indianapolis Center
11:51AM 36.7683 -83.8614 356° North 149 171 6,000  Level Indianapolis Center
11:52AM 36.8094 -83.8658 355° North 149 171 6,000  Level Indianapolis Center
11:53AM 36.8522 -83.8711 354° North 152 175 6,100  Climbing Indianapolis Center
11:54AM 36.8997 -83.8753 356° North 148 170 6,100  Level Indianapolis Center
11:55AM 36.9403 -83.8803 354° North 146 168 6,100  Level Indianapolis Center
11:56AM 36.9819 -83.8847 355° North 148 170 6,100 -60 Level Indianapolis Center
11:57AM 37.0256 -83.8869 358° North 154 177 6,000  Descending Indianapolis Center
11:58AM 37.0669 -83.8928 354° North 152 175 6,100  Climbing Indianapolis Center
11:59AM 37.1083 -83.8975 355° North 149 171 6,100  Level Indianapolis Center
12:00PM 37.1572 -83.9033 355° North 151 174 6,100 -60 Level Indianapolis Center
12:01PM 37.1997 -83.9072 356° North 153 176 6,000 -60 Descending Indianapolis Center
12:02PM 37.2425 -83.9117 355° North 153 176 6,000  Level Indianapolis Center
12:03PM 37.2839 -83.9164 355° North 150 173 6,100  Climbing Indianapolis Center
12:04PM 37.3272 -83.9208 355° North 155 178 6,000  Descending Indianapolis Center
12:05PM 37.3683 -83.9236 357° North 150 173 6,100  Climbing Indianapolis Center
12:06PM 37.4172 -83.9311 353° North 150 173 6,100 -60 Level Indianapolis Center
12:07PM 37.4589 -83.9319 359° North 149 171 6,000  Descending Indianapolis Center
12:08PM 37.5011 -83.9386 353° North 152 175 6,100  Climbing Indianapolis Center
12:09PM 37.5422 -83.9436 354° North 150 173 6,100  Level Indianapolis Center
12:10PM 37.5811 -83.9481 355° North 143 165 6,100  Level Indianapolis Center
12:11PM 37.6242 -83.9525 355° North 151 174 6,100  Level Indianapolis Center
12:12PM 37.6722 -83.9558 357° North 149 171 6,100  Level Indianapolis Center
12:13PM 37.7117 -83.9614 354° North 144 166 6,100  Level Indianapolis Center
12:14PM 37.7547 -83.9664 355° North 151 174 6,100  Level Indianapolis Center
12:16PM 37.7958 -83.9686 358° North 150 173 6,100  Level Indianapolis Center
12:17PM 37.8381 -83.9753 353° North 150 173 6,100  Level Indianapolis Center
12:18PM 37.8817 -83.9800 355° North 154 177 6,100  Level Indianapolis Center
12:19PM 37.9247 -83.9836 356° North 155 178 6,100  Level Indianapolis Center
12:20PM 37.9750 -83.9892 355° North 155 178 6,100  Level Indianapolis Center
12:21PM 38.0178 -83.9933 356° North 154 177 6,100  Level Indianapolis Center
12:22PM 38.0583 -83.9961 357° North 150 173 6,100  Level Indianapolis Center
12:23PM 38.0994 -84.0019 354° North 148 170 6,100  Level Indianapolis Center
12:24PM 38.1392 -84.0056 356° North 146 168 6,100  Level Indianapolis Center
12:25PM 38.1794 -84.0108 354° North 145 167 6,100  Level Indianapolis Center
12:26PM 38.2289 -84.0161 355° North 149 171 6,100  Level Indianapolis Center
12:27PM 38.2714 -84.0197 356° North 150 173 6,100  Level Indianapolis Center
12:28PM 38.3139 -84.0253 354° North 152 175 6,100  Level Indianapolis Center
12:29PM 38.3539 -84.0292 356° North 148 170 6,100  Level Indianapolis Center
12:30PM 38.3961 -84.0333 356° North 151 174 6,100  Level Indianapolis Center
12:31PM 38.4389 -84.0389 354° North 153 176 6,100  Level Indianapolis Center
12:32PM 38.4808 -84.0431 356° North 152 175 6,100  Level Indianapolis Center
12:33PM 38.5275 -84.0486 355° North 145 167 6,100  Level Indianapolis Center
12:34PM 38.5692 -84.0522 356° North 149 171 6,100  Level Indianapolis Center
12:35PM 38.6108 -84.0561 356° North 149 171 6,100 -60 Level Indianapolis Center
12:36PM 38.6483 -84.0639 351° North 151 174 6,000 -60 Descending Indianapolis Center
12:37PM 38.6989 -84.0672 357° North 154 177 6,000  Level Indianapolis Center
12:38PM 38.7428 -84.0708 356° North 156 180 6,000  Level Indianapolis Center
12:39PM 38.7828 -84.0769 353° North 146 168 6,000  Level Indianapolis Center
12:40PM 38.8244 -84.0792 358° North 147 169 6,000  Level Indianapolis Center
12:41PM 38.8644 -84.0847 354° North 145 167 6,000  Level Indianapolis Center
12:42PM 38.9058 -84.0875 357° North 147 169 6,000  Level Indianapolis Center
12:43PM 38.9475 -84.0947 352° North 148 170 6,000  Level Indianapolis Center
12:44PM 38.9869 -84.0997 354° North 143 165 6,000  Level Indianapolis Center
12:45PM 39.0275 -84.1042 355° North 144 166 6,000  Level Indianapolis Center
12:46PM 39.0681 -84.1131 350° North 147 169 6,000  Level Indianapolis Center
12:47PM 39.1136 -84.1167 356° North 141 162 6,000  Level Indianapolis Center
12:48PM 39.1531 -84.1225 353° North 141 162 6,000  Level Indianapolis Center
12:49PM 39.1928 -84.1278 354° North 141 162 6,000  Level Indianapolis Center
12:50PM 39.2222 -84.1308 355° North 149 171 6,000  Level Indianapolis Center
12:50PM 39.2356 -84.1336 351° North 146 168 6,000  Level Indianapolis Center
12:51PM 39.2592 -84.1383 351° North 153 176 6,000  Level Indianapolis Center
12:52PM 39.2778 -84.1392 358° North 149 171 6,000  Level Indianapolis Center
12:52PM 39.3050 -84.1444 351° North 154 177 6,000  Level Indianapolis Center
12:53PM 39.3203 -84.1461 355° North 151 174 6,000  Level Indianapolis Center
12:53PM 39.3486 -84.1500 354° North 142 163 6,000  Level Indianapolis Center
12:54PM 39.3608 -84.1497 North 148 170 6,000  Level Indianapolis Center
12:54PM 39.3900 -84.1556 351° North 141 162 6,000  Level Indianapolis Center
12:55PM 39.3997 -84.1558 359° North 144 166 6,000 60 Level Indianapolis Center
12:55PM 39.4275 -84.1578 357° North 146 168 6,100  Climbing Indianapolis Center
12:56PM 39.4408 -84.1597 354° North 145 167 6,000 -120 Descending Indianapolis Center
12:56PM 39.4689 -84.1631 355° North 146 168 6,000  Level Indianapolis Center
12:57PM 39.4822 -84.1650 354° North 146 168 6,000  Level Indianapolis Center
12:57PM 39.5083 -84.1708 350° North 154 177 6,000  Level Indianapolis Center
12:58PM 39.5325 -84.1719 358° North 150 173 6,000  Level Indianapolis Center
12:58PM 39.5542 -84.1742 355° North 139 160 6,000  Level Indianapolis Center
12:59PM 39.5703 -84.1772 352° North 145 167 6,000 -300 Level Indianapolis Center
12:59PM 39.5933 -84.1794 356° North 130 150 5,700 -600 Descending Indianapolis Center
01:00PM 39.6067 -84.1831 348° North 137 158 5,400 -840 Descending Indianapolis Center
01:00PM 39.6308 -84.1844 357° North 134 154 4,900 -720 Descending Indianapolis Center
01:01PM 39.6442 -84.1869 352° North 134 154 4,700 -660 Descending Indianapolis Center
01:01PM 39.6639 -84.1914 350° North 137 158 4,300 -780 Descending Indianapolis Center
01:02PM 39.6822 -84.1925 357° North 135 155 3,900 -780 Descending Indianapolis Center
01:02PM 39.6969 -84.1958 350° North 128 147 3,600 -720 Descending Indianapolis Center
01:03PM 39.7172 -84.1964 359° North 131 151 3,200 -600 Descending Indianapolis Center
01:03PM 39.7325 -84.1978 356° North 127 146 3,000 -240 Descending Indianapolis Center
01:04PM 39.7528 -84.2014 352° North 128 147 3,000  Level Indianapolis Center
01:04PM 39.7653 -84.2050 347° North 122 140 3,000 60 Level Indianapolis Center
01:05PM 39.7844 -84.2036 North 122 140 3,100 -180 Climbing Indianapolis Center
01:05PM 39.7983 -84.1875 42° Northeast 120 138 2,800 -600 Descending Indianapolis Center
01:06PM 39.8092 -84.1719 48° Northeast 123 142 2,500 -420 Descending Indianapolis Center
01:06PM 39.8236 -84.1583 36° Northeast 118 136 2,400  Descending Indianapolis Center
01:07PM 39.8358 -84.1475 34° Northeast 120 138 2,500  Climbing Indianapolis Center
01:07PM 39.8503 -84.1400 22° Northeast 111 128 2,400 -120 Descending Indianapolis Center
01:08PM 39.8700 -84.1389 North 112 129 2,400 -240 Level Indianapolis Center
01:09PM 39.8983 -84.1453 350° North 106 122 2,100 -360 Descending Indianapolis Center
01:09PM 39.9075 -84.1558 319° Northwest 87 100 1,900 -420 Descending Indianapolis Center
01:10PM 39.9150 -84.1681 309° West 98 113 1,700 -420 Descending Indianapolis Center
01:10PM 39.9119 -84.1808 253° West 81 93 1,500 -480 Descending Indianapolis Center
01:12PM 39.9000 -84.2167 270° West  Level FlightAware Approximate
01:19PM 39.9022 -84.2194 270° West  Level Estimated